createdAt,value
2023-05-06T04:33:19.696Z,13.10
2023-05-06T04:35:54.247Z,13.10
2023-05-06T04:38:23.672Z,13.10
2023-05-06T04:40:51.829Z,13.10
2023-05-06T04:43:19.964Z,13.20
2023-05-06T04:45:49.690Z,13.20
2023-05-06T04:48:22.219Z,13.20
2023-05-06T04:50:50.593Z,13.30
2023-05-06T04:53:18.834Z,13.30
2023-05-06T04:55:47.039Z,13.40
2023-05-06T04:58:15.385Z,13.40
2023-05-06T05:00:43.550Z,13.50
2023-05-06T05:03:11.796Z,13.50
2023-05-06T05:05:41.334Z,13.50
2023-05-06T05:08:11.957Z,13.60
2023-05-06T05:10:42.778Z,13.60
2023-05-06T05:13:10.890Z,13.60
2023-05-06T05:15:39.988Z,13.60
2023-05-06T05:18:09.018Z,13.70
2023-05-06T05:20:37.248Z,13.80
2023-05-06T05:23:06.843Z,13.90
2023-05-06T05:25:34.887Z,14.00
2023-05-06T05:28:03.020Z,14.10
2023-05-06T05:30:31.247Z,14.20
2023-05-06T05:32:59.464Z,14.30
2023-05-06T05:35:27.635Z,14.30
2023-05-06T05:37:55.793Z,14.40
2023-05-06T05:40:25.349Z,14.40
2023-05-06T05:42:53.390Z,14.50
2023-05-06T05:45:21.936Z,14.60
2023-05-06T05:47:50.102Z,14.70
2023-05-06T05:50:18.232Z,14.70
2023-05-06T05:52:46.247Z,14.80
2023-05-06T05:55:14.579Z,14.80
2023-05-06T05:57:44.011Z,14.90
2023-05-06T06:00:13.830Z,14.90
2023-05-06T06:02:42.243Z,15.00
2023-05-06T06:05:10.611Z,15.00
2023-05-06T06:07:39.084Z,14.90
2023-05-06T06:10:08.644Z,14.90
2023-05-06T06:12:36.753Z,14.90
2023-05-06T06:15:07.318Z,15.00
2023-05-06T06:17:35.991Z,15.00
2023-05-06T06:20:05.086Z,14.90
2023-05-06T06:22:33.213Z,14.90
2023-05-06T06:25:01.292Z,14.80
2023-05-06T06:27:29.355Z,14.90
2023-05-06T06:29:57.613Z,14.90
2023-05-06T06:32:27.188Z,14.90
2023-05-06T06:34:55.295Z,14.90
2023-05-06T06:37:23.543Z,15.00
2023-05-06T06:39:51.674Z,15.10
2023-05-06T06:42:19.755Z,15.10
2023-05-06T06:44:48.136Z,15.20
2023-05-06T06:47:16.160Z,15.20
2023-05-06T06:49:45.680Z,15.20
2023-05-06T06:52:13.727Z,15.30
2023-05-06T06:54:41.817Z,15.30
2023-05-06T06:57:10.143Z,15.40
2023-05-06T06:59:38.216Z,15.50
2023-05-06T07:02:06.371Z,15.70
2023-05-06T07:04:34.464Z,15.80
2023-05-06T07:07:04.112Z,15.80
2023-05-06T07:09:33.408Z,15.80
2023-05-06T07:12:03.135Z,15.80
2023-05-06T07:14:32.151Z,15.80
2023-05-06T07:17:00.930Z,15.80
2023-05-06T07:19:29.210Z,16.00
2023-05-06T07:21:57.889Z,16.10
2023-05-06T07:24:27.410Z,16.20
2023-05-06T07:26:55.460Z,16.30
2023-05-06T07:29:23.652Z,16.30
2023-05-06T07:31:51.731Z,16.20
2023-05-06T07:34:20.304Z,16.30
2023-05-06T07:36:48.706Z,16.40
2023-05-06T07:39:16.840Z,16.30
2023-05-06T07:41:46.554Z,16.30
2023-05-06T07:44:14.723Z,16.40
2023-05-06T07:46:42.897Z,16.60
2023-05-06T07:49:11.149Z,16.80
2023-05-06T07:51:39.250Z,17.10
2023-05-06T07:54:07.328Z,17.20
2023-05-06T07:56:35.607Z,17.20
2023-05-06T07:59:05.235Z,17.30
2023-05-06T08:01:33.379Z,17.50
2023-05-06T08:04:01.557Z,17.50
2023-05-06T08:06:29.707Z,17.70
2023-05-06T08:08:58.061Z,17.80
2023-05-06T08:11:26.223Z,18.00
2023-05-06T08:13:54.457Z,18.10
2023-05-06T08:16:25.164Z,18.10
2023-05-06T08:18:53.639Z,18.10
2023-05-06T08:21:21.707Z,18.00
2023-05-06T08:23:49.782Z,18.10
2023-05-06T08:26:18.076Z,18.30
2023-05-06T08:28:46.140Z,18.30
2023-05-06T08:31:14.395Z,18.40
2023-05-06T08:33:43.896Z,18.70
2023-05-06T08:36:11.952Z,18.80
2023-05-06T08:38:40.030Z,19.00
2023-05-06T08:41:10.570Z,18.90
2023-05-06T08:43:42.690Z,19.20
2023-05-06T08:46:11.022Z,19.40
2023-05-06T08:48:39.558Z,19.50
2023-05-06T08:51:09.829Z,19.60
2023-05-06T08:53:37.975Z,19.50
2023-05-06T08:56:09.043Z,19.70
2023-05-06T08:58:38.695Z,19.90
2023-05-06T09:01:07.145Z,19.90
2023-05-06T09:03:35.297Z,20.00
2023-05-06T09:06:03.383Z,20.10
2023-05-06T09:08:32.753Z,20.10
2023-05-06T09:11:00.889Z,20.10
2023-05-06T09:13:29.246Z,20.10
2023-05-06T09:15:57.547Z,20.20
2023-05-06T09:18:25.882Z,20.40
2023-05-06T09:20:53.925Z,20.30
2023-05-06T09:23:23.806Z,20.50
2023-05-06T09:25:53.377Z,20.40
2023-05-06T09:28:21.490Z,20.60
2023-05-06T09:30:51.990Z,20.70
2023-05-06T09:33:20.081Z,20.60
2023-05-06T09:35:49.986Z,20.70
2023-05-06T09:38:18.111Z,20.80
2023-05-06T09:40:46.310Z,20.80
2023-05-06T09:43:16.710Z,20.90
2023-05-06T09:45:46.504Z,21.00
2023-05-06T09:48:18.981Z,21.00
2023-05-06T09:50:47.190Z,21.00
2023-05-06T09:53:18.073Z,21.10
2023-05-06T09:55:47.098Z,21.20
2023-05-06T09:58:17.823Z,21.30
2023-05-06T10:00:46.789Z,21.30
2023-05-06T10:03:16.499Z,21.30
2023-05-06T10:05:44.930Z,21.20
2023-05-06T10:08:18.440Z,21.30
2023-05-06T10:10:47.562Z,21.10
2023-05-06T10:13:17.902Z,21.00
2023-05-06T10:15:48.175Z,21.00
2023-05-06T10:18:18.166Z,21.10
2023-05-06T10:20:47.601Z,21.30
2023-05-06T10:23:25.430Z,21.30
2023-05-06T10:25:58.020Z,21.50
2023-05-06T10:28:30.558Z,21.60
2023-05-06T10:31:00.354Z,21.60
2023-05-06T10:33:30.191Z,21.70
2023-05-06T10:36:04.729Z,21.80
2023-05-06T10:38:36.896Z,21.90
2023-05-06T10:41:05.644Z,22.00
2023-05-06T10:43:36.290Z,21.90
2023-05-06T10:46:09.268Z,21.90
2023-05-06T10:48:38.661Z,21.90
2023-05-06T10:51:27.265Z,22.00
2023-05-06T10:54:04.031Z,21.70
2023-05-06T10:56:33.553Z,21.50
2023-05-06T10:59:11.009Z,21.40
2023-05-06T11:01:40.562Z,21.30
2023-05-06T11:04:13.141Z,21.20
2023-05-06T11:06:43.161Z,21.20
2023-05-06T11:09:18.803Z,21.50
2023-05-06T11:12:00.454Z,21.90
2023-05-06T11:14:31.150Z,22.20
2023-05-06T11:17:01.682Z,22.40
2023-05-06T11:19:31.509Z,22.60
2023-05-06T11:22:01.503Z,22.90
2023-05-06T11:24:31.913Z,23.00
2023-05-06T11:27:01.346Z,22.80
2023-05-06T11:29:30.879Z,22.80
2023-05-06T11:31:59.520Z,22.80
2023-05-06T11:34:28.909Z,22.80
2023-05-06T11:37:03.290Z,22.70
2023-05-06T11:39:36.691Z,22.70
2023-05-06T11:42:09.492Z,22.60
2023-05-06T11:44:40.629Z,22.50
2023-05-06T11:47:10.057Z,22.50
2023-05-06T11:49:39.777Z,22.60
2023-05-06T11:52:09.256Z,22.60
2023-05-06T11:54:39.671Z,22.40
2023-05-06T11:57:08.088Z,22.60
2023-05-06T11:59:39.432Z,22.60
2023-05-06T12:02:08.405Z,22.60
2023-05-06T12:04:41.281Z,22.70
2023-05-06T12:07:11.098Z,22.80
2023-05-06T12:09:41.846Z,22.90
2023-05-06T12:12:11.065Z,22.90
2023-05-06T12:14:41.324Z,22.80
2023-05-06T12:17:09.550Z,22.90
2023-05-06T12:19:37.843Z,23.00
2023-05-06T12:22:20.627Z,23.10
2023-05-06T12:24:49.433Z,23.10
2023-05-06T12:27:32.820Z,23.00
2023-05-06T12:30:04.533Z,23.00
2023-05-06T12:32:33.026Z,23.20
2023-05-06T12:35:05.790Z,23.20
2023-05-06T12:37:34.013Z,23.30
2023-05-06T12:40:02.155Z,23.10
2023-05-06T12:42:30.257Z,22.80
2023-05-06T12:44:58.405Z,22.80
2023-05-06T12:47:27.924Z,22.90
2023-05-06T12:49:58.316Z,22.80
2023-05-06T12:52:28.659Z,22.80
2023-05-06T12:54:57.383Z,22.70
2023-05-06T12:57:26.216Z,22.50
2023-05-06T12:59:56.224Z,22.30
2023-05-06T13:02:24.456Z,22.40
2023-05-06T13:04:54.025Z,22.30
2023-05-06T13:07:22.375Z,22.20
2023-05-06T13:09:50.567Z,22.20
2023-05-06T13:12:18.646Z,22.10
2023-05-06T13:14:46.741Z,21.90
2023-05-06T13:17:14.901Z,21.80
2023-05-06T13:19:43.066Z,21.70
2023-05-06T13:22:12.586Z,21.70
2023-05-06T13:24:40.770Z,21.70
2023-05-06T13:27:08.839Z,21.60
2023-05-06T13:29:37.068Z,21.70
2023-05-06T13:32:07.948Z,21.50
2023-05-06T13:34:36.984Z,21.40
2023-05-06T13:37:05.012Z,21.40
2023-05-06T13:39:34.478Z,21.40
2023-05-06T13:42:02.909Z,21.40
2023-05-06T13:44:31.271Z,21.40
2023-05-06T13:46:59.508Z,21.30
2023-05-06T13:49:27.634Z,21.30
2023-05-06T13:51:55.841Z,21.20
2023-05-06T13:54:24.075Z,21.10
2023-05-06T13:56:53.498Z,21.10
2023-05-06T13:59:21.595Z,21.10
2023-05-06T14:01:53.670Z,21.20
2023-05-06T14:04:21.837Z,21.20
2023-05-06T14:06:49.869Z,21.30
2023-05-06T14:09:18.114Z,21.30
2023-05-06T14:11:46.190Z,21.40
2023-05-06T14:14:15.882Z,21.30
2023-05-06T14:16:44.007Z,21.30
2023-05-06T14:19:12.094Z,21.40
2023-05-06T14:21:40.174Z,21.30
2023-05-06T14:24:08.507Z,21.30
2023-05-06T14:26:36.640Z,21.40
2023-05-06T14:29:04.807Z,21.40
2023-05-06T14:31:35.642Z,21.30
2023-05-06T14:34:03.898Z,21.20
2023-05-06T14:36:31.931Z,21.10
2023-05-06T14:39:00.082Z,21.10
2023-05-06T14:41:28.154Z,21.10
2023-05-06T14:43:56.250Z,21.10
2023-05-06T14:46:24.950Z,21.20
2023-05-06T14:48:55.947Z,21.20
2023-05-06T14:51:24.000Z,21.20
2023-05-06T14:53:52.087Z,21.20
2023-05-06T14:56:20.210Z,21.20
2023-05-06T14:58:48.298Z,21.20
2023-05-06T15:01:16.470Z,21.00
2023-05-06T15:03:45.229Z,21.00
2023-05-06T15:06:14.633Z,21.10
2023-05-06T15:08:42.828Z,21.20
2023-05-06T15:11:10.921Z,21.20
2023-05-06T15:13:39.011Z,21.10
2023-05-06T15:16:09.135Z,21.20
2023-05-06T15:18:41.679Z,21.00
2023-05-06T15:21:09.930Z,20.90
2023-05-06T15:23:39.385Z,20.90
2023-05-06T15:26:07.489Z,21.00
2023-05-06T15:28:35.600Z,21.20
2023-05-06T15:31:03.846Z,21.30
2023-05-06T15:33:31.959Z,21.30
2023-05-06T15:35:59.970Z,21.40
2023-05-06T15:38:28.018Z,21.40
2023-05-06T15:40:57.449Z,21.50
2023-05-06T15:43:33.280Z,21.60
2023-05-06T15:46:05.678Z,21.60
2023-05-06T15:48:33.856Z,21.60
2023-05-06T15:51:02.284Z,21.50
2023-05-06T15:53:30.349Z,21.50
2023-05-06T15:56:12.931Z,21.40
2023-05-06T15:58:46.239Z,21.30
2023-05-06T16:01:14.792Z,21.30
2023-05-06T16:03:43.274Z,21.10
2023-05-06T16:06:12.421Z,21.00
2023-05-06T16:08:41.004Z,21.10
2023-05-06T16:11:10.479Z,21.30
2023-05-06T16:13:38.546Z,21.50
2023-05-06T16:16:07.519Z,21.50
2023-05-06T16:18:35.799Z,21.60
2023-05-06T16:21:04.639Z,21.50
2023-05-06T16:23:32.791Z,21.30
2023-05-06T16:26:01.125Z,21.20
2023-05-06T16:28:30.609Z,21.20
2023-05-06T16:30:58.787Z,21.20
2023-05-06T16:33:26.845Z,21.30
2023-05-06T16:35:55.002Z,21.30
2023-05-06T16:38:23.023Z,21.20
2023-05-06T16:40:51.385Z,21.20
2023-05-06T16:43:19.725Z,21.20
2023-05-06T16:45:49.165Z,21.30
2023-05-06T16:48:17.745Z,21.30
2023-05-06T16:50:46.028Z,21.30
2023-05-06T16:53:14.735Z,21.30
2023-05-06T16:55:47.549Z,21.30
2023-05-06T16:58:15.947Z,21.20
2023-05-06T17:00:44.420Z,21.00
2023-05-06T17:03:14.376Z,20.90
2023-05-06T17:05:42.540Z,20.90
2023-05-06T17:08:10.913Z,20.90
2023-05-06T17:10:39.065Z,20.90
2023-05-06T17:13:07.139Z,20.90
2023-05-06T17:15:35.227Z,20.90
2023-05-06T17:18:03.736Z,20.80
2023-05-06T17:20:40.722Z,20.80
2023-05-06T17:23:16.079Z,20.80
2023-05-06T17:25:44.177Z,20.70
2023-05-06T17:28:12.304Z,20.60
2023-05-06T17:30:40.527Z,20.50
2023-05-06T17:33:08.643Z,20.40
2023-05-06T17:35:38.257Z,20.40
2023-05-06T17:38:06.380Z,20.40
2023-05-06T17:40:34.524Z,20.30
2023-05-06T17:43:02.606Z,20.20
2023-05-06T17:45:30.881Z,20.30
2023-05-06T17:47:59.006Z,20.20
2023-05-06T17:50:27.101Z,20.20
2023-05-06T17:52:56.577Z,20.20
2023-05-06T17:55:24.851Z,20.20
2023-05-06T17:57:53.453Z,20.10
2023-05-06T18:00:21.897Z,20.10
2023-05-06T18:02:50.038Z,20.10
2023-05-06T18:05:18.570Z,20.00
2023-05-06T18:07:47.880Z,20.00
2023-05-06T18:10:17.414Z,20.10
2023-05-06T18:12:46.259Z,20.00
2023-05-06T18:15:16.000Z,20.00
2023-05-06T18:17:44.105Z,19.90
2023-05-06T18:20:13.606Z,19.80
2023-05-06T18:22:42.969Z,19.80
2023-05-06T18:25:11.740Z,19.90
2023-05-06T18:27:41.508Z,19.90
2023-05-06T18:30:10.448Z,19.90
2023-05-06T18:32:38.557Z,19.90
